sensor_id;sensor_type;location;lat;lon;timestamp;pressure;altitude;pressure_sealevel;temperature;humidity
59063;BME280;44851;45.648;9.004;2023-04-25T00:00:47;98162.41;;;14.83;53.73
59063;BME280;44851;45.648;9.004;2023-04-25T00:03:12;98155.31;;;15.04;54.47
59063;BME280;44851;45.648;9.004;2023-04-25T00:05:39;98167.09;;;15.09;54.11
59063;BME280;44851;45.648;9.004;2023-04-25T00:08:04;98162.19;;;15.05;53.04
59063;BME280;44851;45.648;9.004;2023-04-25T00:10:31;98162.41;;;15.04;53.20
59063;BME280;44851;45.648;9.004;2023-04-25T00:12:56;98171.06;;;15.04;53.18
59063;BME280;44851;45.648;9.004;2023-04-25T00:15:22;98165.53;;;14.93;53.03
59063;BME280;44851;45.648;9.004;2023-04-25T00:17:49;98166.38;;;15.00;53.14
59063;BME280;44851;45.648;9.004;2023-04-25T00:20:14;98172.59;;;14.92;52.98
59063;BME280;44851;45.648;9.004;2023-04-25T00:22:40;98160.84;;;14.88;52.67
59063;BME280;44851;45.648;9.004;2023-04-25T00:25:06;98164.06;;;14.90;53.68
59063;BME280;44851;45.648;9.004;2023-04-25T00:27:32;98166.13;;;14.95;53.29
59063;BME280;44851;45.648;9.004;2023-04-25T00:29:58;98168.06;;;14.86;53.59
59063;BME280;44851;45.648;9.004;2023-04-25T00:32:23;98161.66;;;14.89;53.29
59063;BME280;44851;45.648;9.004;2023-04-25T00:34:48;98162.00;;;14.86;53.51
59063;BME280;44851;45.648;9.004;2023-04-25T00:37:14;98154.13;;;14.86;53.67
59063;BME280;44851;45.648;9.004;2023-04-25T00:39:40;98157.47;;;14.94;54.12
59063;BME280;44851;45.648;9.004;2023-04-25T00:42:05;98159.22;;;14.87;54.10
59063;BME280;44851;45.648;9.004;2023-04-25T00:44:31;98158.41;;;14.87;54.48
59063;BME280;44851;45.648;9.004;2023-04-25T00:46:57;98149.63;;;15.01;54.73
59063;BME280;44851;45.648;9.004;2023-04-25T00:49:23;98154.56;;;15.11;54.65
59063;BME280;44851;45.648;9.004;2023-04-25T00:51:48;98151.34;;;15.09;54.06
59063;BME280;44851;45.648;9.004;2023-04-25T00:54:14;98156.09;;;14.98;55.08
59063;BME280;44851;45.648;9.004;2023-04-25T00:56:40;98151.34;;;14.66;54.35
59063;BME280;44851;45.648;9.004;2023-04-25T00:59:06;98150.00;;;14.55;54.94
59063;BME280;44851;45.648;9.004;2023-04-25T01:01:32;98156.94;;;14.63;55.46
59063;BME280;44851;45.648;9.004;2023-04-25T01:03:59;98153.06;;;14.59;55.05
59063;BME280;44851;45.648;9.004;2023-04-25T01:06:25;98150.38;;;14.52;54.76
59063;BME280;44851;45.648;9.004;2023-04-25T01:08:51;98143.28;;;14.67;54.41
59063;BME280;44851;45.648;9.004;2023-04-25T01:11:17;98145.41;;;14.42;54.37
59063;BME280;44851;45.648;9.004;2023-04-25T01:13:42;98138.47;;;14.49;55.17
59063;BME280;44851;45.648;9.004;2023-04-25T01:16:08;98133.06;;;14.36;53.79
59063;BME280;44851;45.648;9.004;2023-04-25T01:18:33;98141.38;;;14.40;55.20
59063;BME280;44851;45.648;9.004;2023-04-25T01:21:25;98135.31;;;14.39;53.52
59063;BME280;44851;45.648;9.004;2023-04-25T01:23:54;98144.63;;;14.42;55.21
59063;BME280;44851;45.648;9.004;2023-04-25T01:26:21;98136.56;;;14.43;55.10
59063;BME280;44851;45.648;9.004;2023-04-25T01:28:47;98143.81;;;14.41;54.57
59063;BME280;44851;45.648;9.004;2023-04-25T01:31:12;98138.31;;;14.36;54.53
59063;BME280;44851;45.648;9.004;2023-04-25T01:33:38;98149.53;;;14.30;54.52
59063;BME280;44851;45.648;9.004;2023-04-25T01:36:04;98143.91;;;14.18;54.86
59063;BME280;44851;45.648;9.004;2023-04-25T01:38:30;98153.41;;;14.05;54.17
59063;BME280;44851;45.648;9.004;2023-04-25T01:40:55;98153.41;;;14.05;54.76
59063;BME280;44851;45.648;9.004;2023-04-25T01:43:21;98151.69;;;14.12;55.33
59063;BME280;44851;45.648;9.004;2023-04-25T01:45:47;98142.94;;;14.05;54.90
59063;BME280;44851;45.648;9.004;2023-04-25T01:48:14;98146.19;;;14.07;55.20
59063;BME280;44851;45.648;9.004;2023-04-25T01:50:41;98150.53;;;13.99;55.26
59063;BME280;44851;45.648;9.004;2023-04-25T01:53:09;98144.94;;;14.03;55.01
59063;BME280;44851;45.648;9.004;2023-04-25T01:55:35;98145.94;;;14.02;55.43
59063;BME280;44851;45.648;9.004;2023-04-25T01:58:02;98140.41;;;14.26;56.09
59063;BME280;44851;45.648;9.004;2023-04-25T02:00:28;98145.63;;;14.26;55.10
59063;BME280;44851;45.648;9.004;2023-04-25T02:02:53;98139.97;;;14.08;55.21
59063;BME280;44851;45.648;9.004;2023-04-25T02:05:19;98137.88;;;13.88;55.03
59063;BME280;44851;45.648;9.004;2023-04-25T02:07:46;98147.47;;;13.81;55.70
59063;BME280;44851;45.648;9.004;2023-04-25T02:10:12;98145.19;;;13.78;55.26
59063;BME280;44851;45.648;9.004;2023-04-25T02:12:37;98140.63;;;13.80;55.53
59063;BME280;44851;45.648;9.004;2023-04-25T02:15:03;98132.84;;;13.72;55.87
59063;BME280;44851;45.648;9.004;2023-04-25T02:17:28;98137.44;;;13.70;56.22
59063;BME280;44851;45.648;9.004;2023-04-25T02:19:54;98131.47;;;13.61;55.92
59063;BME280;44851;45.648;9.004;2023-04-25T02:22:19;98126.97;;;13.70;56.46
59063;BME280;44851;45.648;9.004;2023-04-25T02:24:45;98122.69;;;13.69;56.54
59063;BME280;44851;45.648;9.004;2023-04-25T02:27:11;98123.44;;;13.63;56.49
59063;BME280;44851;45.648;9.004;2023-04-25T02:29:36;98119.47;;;13.67;56.92
59063;BME280;44851;45.648;9.004;2023-04-25T02:32:02;98118.91;;;13.57;55.91
59063;BME280;44851;45.648;9.004;2023-04-25T02:34:27;98125.06;;;13.49;56.78
59063;BME280;44851;45.648;9.004;2023-04-25T02:36:53;98124.59;;;13.45;56.79
59063;BME280;44851;45.648;9.004;2023-04-25T02:39:18;98124.69;;;13.37;56.65
59063;BME280;44851;45.648;9.004;2023-04-25T02:41:44;98129.78;;;13.54;57.58
59063;BME280;44851;45.648;9.004;2023-04-25T02:44:09;98119.28;;;13.54;57.54
59063;BME280;44851;45.648;9.004;2023-04-25T02:46:35;98129.94;;;13.37;56.74
59063;BME280;44851;45.648;9.004;2023-04-25T02:49:00;98122.63;;;13.33;56.76
59063;BME280;44851;45.648;9.004;2023-04-25T02:51:25;98123.75;;;13.30;57.31
59063;BME280;44851;45.648;9.004;2023-04-25T02:53:51;98124.13;;;13.27;57.59
59063;BME280;44851;45.648;9.004;2023-04-25T02:56:16;98135.28;;;13.21;57.95
59063;BME280;44851;45.648;9.004;2023-04-25T02:58:42;98139.56;;;13.22;58.41
59063;BME280;44851;45.648;9.004;2023-04-25T03:01:07;98142.19;;;13.37;58.11
59063;BME280;44851;45.648;9.004;2023-04-25T03:03:33;98141.66;;;13.41;58.14
59063;BME280;44851;45.648;9.004;2023-04-25T03:05:58;98139.03;;;13.41;58.39
59063;BME280;44851;45.648;9.004;2023-04-25T03:08:23;98140.66;;;13.42;58.21
59063;BME280;44851;45.648;9.004;2023-04-25T03:10:50;98139.13;;;13.33;57.72
59063;BME280;44851;45.648;9.004;2023-04-25T03:13:17;98136.22;;;13.28;57.63
59063;BME280;44851;45.648;9.004;2023-04-25T03:15:43;98135.97;;;13.38;58.20
59063;BME280;44851;45.648;9.004;2023-04-25T03:18:09;98132.63;;;13.29;57.56
59063;BME280;44851;45.648;9.004;2023-04-25T03:20:34;98130.91;;;13.21;57.74
59063;BME280;44851;45.648;9.004;2023-04-25T03:23:00;98129.88;;;13.00;57.80
59063;BME280;44851;45.648;9.004;2023-04-25T03:25:25;98123.69;;;13.01;58.45
59063;BME280;44851;45.648;9.004;2023-04-25T03:27:50;98123.31;;;13.04;58.29
59063;BME280;44851;45.648;9.004;2023-04-25T03:30:16;98123.22;;;12.97;57.78
59063;BME280;44851;45.648;9.004;2023-04-25T03:32:41;98121.94;;;12.93;58.10
59063;BME280;44851;45.648;9.004;2023-04-25T03:35:07;98123.16;;;12.82;57.92
59063;BME280;44851;45.648;9.004;2023-04-25T03:37:32;98118.88;;;12.89;58.86
59063;BME280;44851;45.648;9.004;2023-04-25T03:39:58;98119.63;;;12.75;57.94
59063;BME280;44851;45.648;9.004;2023-04-25T03:42:23;98119.25;;;12.78;58.28
59063;BME280;44851;45.648;9.004;2023-04-25T03:44:49;98114.03;;;12.78;58.21
59063;BME280;44851;45.648;9.004;2023-04-25T03:47:15;98120.63;;;12.74;57.92
59063;BME280;44851;45.648;9.004;2023-04-25T03:49:41;98120.34;;;12.69;58.20
59063;BME280;44851;45.648;9.004;2023-04-25T03:52:06;98122.88;;;12.77;57.74
59063;BME280;44851;45.648;9.004;2023-04-25T03:54:32;98120.09;;;12.79;57.75
59063;BME280;44851;45.648;9.004;2023-04-25T03:56:58;98117.53;;;12.70;57.59
59063;BME280;44851;45.648;9.004;2023-04-25T03:59:23;98121.69;;;12.57;57.47
59063;BME280;44851;45.648;9.004;2023-04-25T04:01:50;98118.88;;;12.66;58.46
59063;BME280;44851;45.648;9.004;2023-04-25T04:04:15;98116.13;;;12.60;57.16
59063;BME280;44851;45.648;9.004;2023-04-25T04:06:41;98122.41;;;12.51;56.70
59063;BME280;44851;45.648;9.004;2023-04-25T04:09:07;98122.16;;;12.37;57.15
59063;BME280;44851;45.648;9.004;2023-04-25T04:11:36;98125.00;;;12.20;56.93
59063;BME280;44851;45.648;9.004;2023-04-25T04:14:04;98123.97;;;12.37;56.78
59063;BME280;44851;45.648;9.004;2023-04-25T04:16:30;98136.56;;;12.33;56.48
59063;BME280;44851;45.648;9.004;2023-04-25T04:18:56;98136.56;;;12.33;55.68
59063;BME280;44851;45.648;9.004;2023-04-25T04:21:21;98133.44;;;12.61;55.73
59063;BME280;44851;45.648;9.004;2023-04-25T04:23:46;98133.31;;;12.54;55.20
59063;BME280;44851;45.648;9.004;2023-04-25T04:26:13;98133.22;;;12.48;55.12
59063;BME280;44851;45.648;9.004;2023-04-25T04:28:40;98128.91;;;12.55;54.28
59063;BME280;44851;45.648;9.004;2023-04-25T04:31:05;98131.00;;;12.36;55.14
59063;BME280;44851;45.648;9.004;2023-04-25T04:33:32;98135.81;;;12.16;55.00
59063;BME280;44851;45.648;9.004;2023-04-25T04:35:58;98132.09;;;12.11;54.65
59063;BME280;44851;45.648;9.004;2023-04-25T04:38:24;98130.72;;;12.23;55.53
59063;BME280;44851;45.648;9.004;2023-04-25T04:40:50;98134.41;;;12.37;55.22
59063;BME280;44851;45.648;9.004;2023-04-25T04:43:16;98139.47;;;12.38;55.44
59063;BME280;44851;45.648;9.004;2023-04-25T04:45:42;98144.41;;;12.25;55.39
59063;BME280;44851;45.648;9.004;2023-04-25T04:48:08;98146.41;;;12.23;54.82
59063;BME280;44851;45.648;9.004;2023-04-25T04:50:33;98140.94;;;12.10;53.87
59063;BME280;44851;45.648;9.004;2023-04-25T04:53:01;98146.34;;;12.00;53.90
59063;BME280;44851;45.648;9.004;2023-04-25T04:55:27;98153.66;;;11.97;54.26
59063;BME280;44851;45.648;9.004;2023-04-25T04:57:52;98146.81;;;12.04;54.60
59063;BME280;44851;45.648;9.004;2023-04-25T05:00:18;98157.25;;;12.04;54.60
59063;BME280;44851;45.648;9.004;2023-04-25T05:02:43;98156.41;;;12.11;54.28
59063;BME280;44851;45.648;9.004;2023-04-25T05:05:09;98163.44;;;12.11;54.00
59063;BME280;44851;45.648;9.004;2023-04-25T05:07:35;98166.22;;;11.93;54.24
59063;BME280;44851;45.648;9.004;2023-04-25T05:10:01;98167.41;;;11.90;54.32
59063;BME280;44851;45.648;9.004;2023-04-25T05:12:26;98170.50;;;11.94;53.90
59063;BME280;44851;45.648;9.004;2023-04-25T05:14:52;98169.50;;;11.95;52.11
59063;BME280;44851;45.648;9.004;2023-04-25T05:17:17;98172.28;;;11.94;51.29
59063;BME280;44851;45.648;9.004;2023-04-25T05:19:42;98170.00;;;11.99;52.10
59063;BME280;44851;45.648;9.004;2023-04-25T05:22:08;98166.06;;;12.03;52.68
59063;BME280;44851;45.648;9.004;2023-04-25T05:24:33;98166.19;;;12.09;52.17
59063;BME280;44851;45.648;9.004;2023-04-25T05:26:59;98167.50;;;12.13;52.53
59063;BME280;44851;45.648;9.004;2023-04-25T05:29:24;98166.16;;;12.26;53.11
59063;BME280;44851;45.648;9.004;2023-04-25T05:31:49;98166.81;;;12.20;51.21
59063;BME280;44851;45.648;9.004;2023-04-25T05:34:15;98165.94;;;12.04;51.52
59063;BME280;44851;45.648;9.004;2023-04-25T05:36:41;98170.28;;;12.12;51.65
59063;BME280;44851;45.648;9.004;2023-04-25T05:39:07;98165.38;;;12.09;52.00
59063;BME280;44851;45.648;9.004;2023-04-25T05:41:34;98168.63;;;12.19;52.34
59063;BME280;44851;45.648;9.004;2023-04-25T05:43:59;98163.69;;;12.24;51.28
59063;BME280;44851;45.648;9.004;2023-04-25T05:46:25;98167.50;;;12.13;51.00
59063;BME280;44851;45.648;9.004;2023-04-25T05:48:50;98166.00;;;12.19;50.31
59063;BME280;44851;45.648;9.004;2023-04-25T05:51:15;98162.06;;;12.31;50.71
59063;BME280;44851;45.648;9.004;2023-04-25T05:53:41;98166.28;;;12.32;49.85
59063;BME280;44851;45.648;9.004;2023-04-25T05:56:07;98162.19;;;12.30;49.74
59063;BME280;44851;45.648;9.004;2023-04-25T05:58:33;98161.31;;;12.46;50.58
59063;BME280;44851;45.648;9.004;2023-04-25T06:00:58;98159.00;;;12.51;51.72
59063;BME280;44851;45.648;9.004;2023-04-25T06:03:24;98171.72;;;12.54;50.24
59063;BME280;44851;45.648;9.004;2023-04-25T06:05:51;98163.19;;;12.60;49.63
59063;BME280;44851;45.648;9.004;2023-04-25T06:08:16;98160.25;;;12.63;50.17
59063;BME280;44851;45.648;9.004;2023-04-25T06:10:42;98165.59;;;12.69;49.67
59063;BME280;44851;45.648;9.004;2023-04-25T06:13:07;98161.06;;;12.86;51.82
59063;BME280;44851;45.648;9.004;2023-04-25T06:15:33;98154.78;;;12.95;49.05
59063;BME280;44851;45.648;9.004;2023-04-25T06:17:58;98167.75;;;13.12;49.53
59063;BME280;44851;45.648;9.004;2023-04-25T06:20:24;98156.78;;;13.31;48.60
59063;BME280;44851;45.648;9.004;2023-04-25T06:22:50;98170.47;;;13.56;49.62
59063;BME280;44851;45.648;9.004;2023-04-25T06:25:17;98173.03;;;13.94;50.49
59063;BME280;44851;45.648;9.004;2023-04-25T06:27:42;98170.22;;;14.25;49.66
59063;BME280;44851;45.648;9.004;2023-04-25T06:30:08;98171.00;;;14.55;49.17
59063;BME280;44851;45.648;9.004;2023-04-25T06:32:33;98167.44;;;14.63;48.95
59063;BME280;44851;45.648;9.004;2023-04-25T06:35:00;98169.22;;;14.77;47.69
59063;BME280;44851;45.648;9.004;2023-04-25T06:37:25;98168.25;;;15.06;49.93
59063;BME280;44851;45.648;9.004;2023-04-25T06:39:51;98174.44;;;15.20;48.13
59063;BME280;44851;45.648;9.004;2023-04-25T06:42:16;98171.81;;;15.41;46.71
59063;BME280;44851;45.648;9.004;2023-04-25T06:44:42;98170.00;;;15.70;46.79
59063;BME280;44851;45.648;9.004;2023-04-25T06:47:07;98174.09;;;15.79;46.94
59063;BME280;44851;45.648;9.004;2023-04-25T06:49:33;98174.59;;;15.96;49.44
59063;BME280;44851;45.648;9.004;2023-04-25T06:51:58;98180.91;;;16.08;46.72
59063;BME280;44851;45.648;9.004;2023-04-25T06:54:23;98178.72;;;16.12;46.18
59063;BME280;44851;45.648;9.004;2023-04-25T06:56:50;98173.84;;;16.08;45.86
59063;BME280;44851;45.648;9.004;2023-04-25T06:59:16;98183.53;;;16.36;45.68
59063;BME280;44851;45.648;9.004;2023-04-25T07:01:41;98182.53;;;16.50;46.98
59063;BME280;44851;45.648;9.004;2023-04-25T07:04:06;98182.16;;;16.53;46.41
59063;BME280;44851;45.648;9.004;2023-04-25T07:06:32;98178.16;;;16.71;45.58
59063;BME280;44851;45.648;9.004;2023-04-25T07:08:57;98170.84;;;16.73;45.61
59063;BME280;44851;45.648;9.004;2023-04-25T07:11:23;98178.78;;;16.79;45.17
59063;BME280;44851;45.648;9.004;2023-04-25T07:13:48;98171.28;;;16.83;46.16
59063;BME280;44851;45.648;9.004;2023-04-25T07:16:14;98178.22;;;16.97;46.74
59063;BME280;44851;45.648;9.004;2023-04-25T07:18:39;98179.06;;;17.18;45.20
59063;BME280;44851;45.648;9.004;2023-04-25T07:21:05;98176.97;;;16.93;45.26
59063;BME280;44851;45.648;9.004;2023-04-25T07:23:30;98172.59;;;17.13;44.98
59063;BME280;44851;45.648;9.004;2023-04-25T07:25:56;98171.38;;;17.16;44.46
